FW2061 Camano Island WA US current weather conditions

sailwx.info

Wind from 276 at 2 knots gusting 5

Air temperature 8.3° C
Dewpoint 7.3° C

Last reported at 2019-Nov-19 15:00 UTC.
Time now 2019-Nov-19 15:34 UTC

Location: N 48°06' W 122°24'.
View on Google Maps.

See reports from other nearby stations

  
Tides and Currents Weather Stations Pressure Air Temp Water Temp Dewpoint Dewpoint Depression Visibility Wind Speed Wind Dir Waves Ship Positions
date/time (UTC)wind fromknots sea level pressurealtimeterstation pressurevisibilityair tempwater tempwave heightnotes
2019-Nov-19 15:00 276 2 gusting 5 8.3
2019-Nov-19 14:55 264 3 gusting 5 8.3
2019-Nov-19 14:50 265 1 gusting 6 8.3
2019-Nov-19 14:45 256 1 gusting 6 8.3
2019-Nov-19 14:40 248 3 gusting 5 8.3
2019-Nov-19 14:35 270 1 gusting 6 8.3
2019-Nov-19 14:30 254 2 gusting 6 8.3
2019-Nov-19 14:25 250 2 gusting 6 8.3
2019-Nov-19 14:15 269 3 gusting 6 8.3
2019-Nov-19 14:10 266 3 gusting 6 8.3
2019-Nov-19 14:05 264 2 gusting 6 8.3
2019-Nov-19 14:00 231 1 gusting 6 8.3
2019-Nov-19 13:55 277 3 gusting 7 8.3
2019-Nov-19 13:50 337 3 gusting 7 8.9
2019-Nov-19 13:40 266 4 gusting 8 8.9
2019-Nov-19 13:35 272 5 gusting 8 8.9
2019-Nov-19 13:25 333 5 gusting 10 8.9
2019-Nov-19 13:20 296 5 gusting 10 8.9
2019-Nov-19 13:10 314 3 gusting 7 8.9
2019-Nov-19 13:05 302 2 gusting 6 8.9
2019-Nov-19 13:00 293 3 gusting 6 8.9
2019-Nov-19 12:55 276 2 gusting 6 8.9
2019-Nov-19 12:50 295 2 gusting 6 8.9
2019-Nov-19 12:40 288 2 gusting 6 8.9
2019-Nov-19 12:35 285 3 gusting 6 8.9
2019-Nov-19 12:30 273 2 gusting 5 8.9
2019-Nov-19 12:25 262 2 gusting 5 8.9
2019-Nov-19 12:20 258 0 gusting 4 8.9
2019-Nov-19 12:15 245 1 gusting 6 8.9
2019-Nov-19 12:10 271 3 gusting 8 8.9
2019-Nov-19 12:05 321 5 gusting 8 8.9
2019-Nov-19 12:00 286 5 gusting 8 8.9
2019-Nov-19 11:55 322 6 gusting 9 8.9
2019-Nov-19 11:45 314 6 gusting 10 8.9
2019-Nov-19 11:40 351 6 gusting 10 8.9
2019-Nov-19 11:30 330 7 gusting 10 8.9
2019-Nov-19 11:20 323 8 gusting 12 9.4
2019-Nov-19 11:10 335 5 gusting 9 9.4
2019-Nov-19 11:05 305 6 gusting 9 9.4
2019-Nov-19 11:00 333 6 gusting 7 9.4
2019-Nov-19 10:55 329 5 gusting 8 9.4
2019-Nov-19 10:50 274 5 gusting 8 9.4
2019-Nov-19 10:45 277 0 gusting 2 9.4
2019-Nov-19 10:35 268 0 gusting 3 9.4
2019-Nov-19 10:30 269 9.4
2019-Nov-19 10:20 237 0 gusting 0 9.4
2019-Nov-19 10:15 265 9.4
2019-Nov-19 10:05 316 1 gusting 4 9.4
2019-Nov-19 10:00 269 0 gusting 3 9.4
2019-Nov-19 09:55 283 0 gusting 3 9.4
2019-Nov-19 09:50 333 2 gusting 5 9.4
2019-Nov-19 09:45 311 2 gusting 6 9.4
2019-Nov-19 09:40 307 2 gusting 6 9.4
2019-Nov-19 09:35 356 2 gusting 5 9.4
2019-Nov-19 09:30 295 2 gusting 4 9.4
2019-Nov-19 09:25 348 0 gusting 3 9.4
2019-Nov-19 09:20 234 0 gusting 1 9.4
2019-Nov-19 09:15 238 9.4
2019-Nov-19 09:10 238 9.4
2019-Nov-19 09:05 238 9.4
2019-Nov-19 09:00 238 9.4
2019-Nov-19 08:55 238 9.4
2019-Nov-19 08:45 238 9.4
2019-Nov-19 08:40 238 9.4
2019-Nov-19 08:30 238 9.4
2019-Nov-19 08:25 238 9.4
2019-Nov-19 08:20 238 9.4
2019-Nov-19 08:15 246 9.4
2019-Nov-19 08:10 247 9.4
2019-Nov-19 08:05 272 9.4
2019-Nov-19 08:00 273 9.4
2019-Nov-19 07:55 275 10.0
2019-Nov-19 07:50 278 10.0
2019-Nov-19 07:45 279 0 gusting 3 10.0
2019-Nov-19 07:40 335 1 gusting 3 10.0
2019-Nov-19 07:35 058 0 gusting 3 10.0
2019-Nov-19 07:30 234 0 gusting 3 10.6
2019-Nov-19 07:25 231 1 gusting 3 10.6
2019-Nov-19 07:20 189 0 gusting 4 10.6
2019-Nov-19 07:15 211 1 gusting 6 10.6
2019-Nov-19 07:10 204 2 gusting 6 10.6
2019-Nov-19 07:05 183 4 gusting 6 10.6
2019-Nov-19 07:01 162 3 gusting 8 10.6
2019-Nov-19 06:55 174 3 gusting 8 10.6
2019-Nov-19 06:50 236 4 gusting 7 10.6
2019-Nov-19 06:45 172 5 gusting 8 10.6
2019-Nov-19 06:35 125 5 gusting 6 10.6
2019-Nov-19 06:30 139 3 gusting 5 10.6
2019-Nov-19 06:25 168 2 gusting 8 10.6
2019-Nov-19 06:20 145 4 gusting 10 10.6
2019-Nov-19 06:15 169 6 gusting 10 10.6
2019-Nov-19 06:10 198 6 gusting 11 10.6
2019-Nov-19 06:05 167 6 gusting 11 10.6
2019-Nov-19 06:00 221 6 gusting 9 10.6
2019-Nov-19 05:55 170 3 gusting 11 10.6
2019-Nov-19 05:50 126 6 gusting 11 10.6
2019-Nov-19 05:45 153 4 gusting 10 10.6
2019-Nov-19 05:40 165 4 gusting 8 10.6
2019-Nov-19 05:35 160 6 gusting 9 10.6
2019-Nov-19 05:30 212 6 gusting 9 10.6
2019-Nov-19 05:25 171 4 gusting 8 10.0
2019-Nov-19 05:20 167 5 gusting 8 10.0
2019-Nov-19 05:15 187 4 gusting 9 10.0
2019-Nov-19 05:10 202 5 gusting 9 10.0
2019-Nov-19 05:05 187 4 gusting 8 10.0
2019-Nov-19 05:00 227 3 gusting 5 10.0
2019-Nov-19 04:55 180 2 gusting 4 10.0
2019-Nov-19 04:50 209 10.0
2019-Nov-19 04:45 202 2 gusting 10 10.0
2019-Nov-19 04:40 181 6 gusting 10 10.0
2019-Nov-19 04:35 154 5 gusting 10 10.0
2019-Nov-19 04:30 182 5 gusting 10 10.0
2019-Nov-19 04:25 174 3 gusting 9 10.0
2019-Nov-19 04:20 207 3 gusting 9 10.0
2019-Nov-19 04:10 135 6 gusting 9 10.0
2019-Nov-19 04:05 123 5 gusting 12 10.0
2019-Nov-19 03:55 117 8 gusting 12 10.0
2019-Nov-19 03:50 124 9 gusting 12 10.0
2019-Nov-19 03:45 153 7 gusting 13 10.0
2019-Nov-19 03:35 176 6 gusting 11 10.0
2019-Nov-19 03:30 186 5 gusting 11 10.0
2019-Nov-19 03:25 172 6 gusting 11 10.0
2019-Nov-19 03:20 124 6 gusting 10 10.0
2019-Nov-19 03:15 214 2 gusting 7 10.0
2019-Nov-19 03:10 200 4 gusting 7 10.0
2019-Nov-19 03:05 141 3 gusting 5 10.0
2019-Nov-19 03:00 209 0 gusting 1 10.0
2019-Nov-19 02:55 219 10.0
2019-Nov-19 02:50 219 10.0
2019-Nov-19 02:45 219 10.0
2019-Nov-19 02:35 219 1 gusting 6 10.0
2019-Nov-19 02:30 248 2 gusting 6 10.0
2019-Nov-19 02:25 205 3 gusting 6 10.0
2019-Nov-19 02:20 190 0 gusting 5 10.0
2019-Nov-19 02:15 233 1 gusting 6 10.0
2019-Nov-19 02:10 214 2 gusting 6 10.0
2019-Nov-19 02:05 124 2 gusting 6 10.0
2019-Nov-19 02:00 224 1 gusting 6 10.0
2019-Nov-19 01:55 155 1 gusting 11 10.0
2019-Nov-19 01:45 110 6 gusting 11 10.0
2019-Nov-19 01:40 140 4 gusting 7 10.0
2019-Nov-19 01:35 162 5 gusting 7 10.0
2019-Nov-19 01:30 164 3 gusting 6 10.0
2019-Nov-19 01:25 115 4 gusting 10 10.0
2019-Nov-19 01:20 145 4 gusting 10 10.0
2019-Nov-19 01:15 137 6 gusting 10 10.0
2019-Nov-19 01:10 156 5 gusting 8 10.0
2019-Nov-19 01:05 199 1 gusting 6 10.0
2019-Nov-19 01:00 208 2 gusting 9 10.0
2019-Nov-19 00:55 211 4 gusting 9 10.0
2019-Nov-19 00:45 122 3 gusting 8 10.0
2019-Nov-19 00:40 199 2 gusting 9 10.0
2019-Nov-19 00:35 203 1 gusting 9 10.0
2019-Nov-19 00:30 159 3 gusting 8 10.0
2019-Nov-19 00:25 124 2 gusting 6 10.0
2019-Nov-19 00:20 207 1 gusting 5 10.0
2019-Nov-19 00:15 241 1 gusting 7 10.6
2019-Nov-19 00:10 216 2 gusting 9 11.1
2019-Nov-19 00:05 108 6 gusting 11 11.1
2019-Nov-18 23:55 106 7 gusting 13 11.1
2019-Nov-18 23:50 115 8 gusting 15 11.1
2019-Nov-18 23:45 113 9 gusting 15 11.1
2019-Nov-18 23:35 129 11 gusting 17 10.6
2019-Nov-18 23:30 109 11 gusting 13 10.6
2019-Nov-18 23:25 131 6 gusting 11 10.0
2019-Nov-18 23:20 148 6 gusting 12 10.0
2019-Nov-18 23:15 143 5 gusting 12 10.0
2019-Nov-18 23:10 232 6 gusting 14 10.6
2019-Nov-18 23:00 152 9 gusting 13 10.6
2019-Nov-18 22:55 214 2 gusting 11 10.0
2019-Nov-18 22:50 183 6 gusting 11 10.0
2019-Nov-18 22:40 115 5 gusting 13 10.0
2019-Nov-18 22:35 164 7 gusting 14 9.4
2019-Nov-18 22:30 203 8 gusting 14 9.4
2019-Nov-18 22:20 132 7 gusting 12 9.4
2019-Nov-18 22:15 151 7 gusting 12 9.4
2019-Nov-18 22:05 122 7 gusting 13 9.4
2019-Nov-18 21:55 126 9 gusting 14 9.4
2019-Nov-18 21:50 128 11 gusting 14 9.4
2019-Nov-18 21:45 117 12 gusting 15 9.4
2019-Nov-18 21:40 131 13 gusting 16 9.4
2019-Nov-18 21:35 136 13 gusting 16 9.4
2019-Nov-18 21:30 123 12 gusting 15 9.4
2019-Nov-18 21:20 162 6 gusting 10 9.4
2019-Nov-18 21:15 166 6 gusting 10 9.4
2019-Nov-18 21:05 225 4 gusting 6 9.4
2019-Nov-18 21:00 144 5 gusting 8 9.4
2019-Nov-18 20:55 124 6 gusting 8 9.4
2019-Nov-18 20:50 148 4 gusting 6 9.4
2019-Nov-18 20:45 156 4 gusting 6 8.9
2019-Nov-18 20:40 160 2 gusting 3 8.9
2019-Nov-18 20:30 178 2 gusting 4 8.9
2019-Nov-18 20:25 058 2 gusting 5 8.9
2019-Nov-18 20:15 147 2 gusting 3 8.9
2019-Nov-18 20:10 179 1 gusting 3 8.9
2019-Nov-18 20:00 240 1 gusting 5 8.9
2019-Nov-18 19:55 107 0 gusting 3 8.9
2019-Nov-18 19:50 198 1 gusting 5 8.9
2019-Nov-18 19:40 168 3 gusting 5 8.9
2019-Nov-18 19:30 216 2 gusting 6 8.3
2019-Nov-18 19:25 018 1 gusting 3 8.3
2019-Nov-18 19:20 258 1 gusting 2 8.3
2019-Nov-18 19:15 264 0 gusting 2 8.3
2019-Nov-18 19:10 297 1 gusting 2 8.3
2019-Nov-18 19:05 226 8.3
2019-Nov-18 19:00 262 8.3
2019-Nov-18 18:55 264 8.3
2019-Nov-18 18:50 271 1 gusting 2 8.3
2019-Nov-18 18:45 288 0 gusting 4 8.3
2019-Nov-18 18:40 336 1 gusting 4 8.3
2019-Nov-18 18:35 280 0 gusting 2 8.3
2019-Nov-18 18:30 261 8.3
2019-Nov-18 18:25 346 3 gusting 4 8.3
2019-Nov-18 18:20 315 2 gusting 4 8.3
2019-Nov-18 18:15 024 1 gusting 2 8.3
2019-Nov-18 18:10 274 1 gusting 2 8.3
2019-Nov-18 18:05 299 1 gusting 2 8.3
2019-Nov-18 18:00 243 0 gusting 2 8.3
2019-Nov-18 17:55 243 8.3
2019-Nov-18 17:50 243 0 gusting 2 8.3
2019-Nov-18 17:45 257 0 gusting 2 8.3
2019-Nov-18 17:40 257 0 gusting 2 8.3
2019-Nov-18 17:30 277 1 gusting 4 8.3
2019-Nov-18 17:25 306 2 gusting 4 8.3
2019-Nov-18 17:20 344 3 gusting 4 8.3
2019-Nov-18 17:15 283 1 gusting 3 8.3
2019-Nov-18 17:10 273 0 gusting 2 8.3
2019-Nov-18 17:05 264 8.3
2019-Nov-18 17:00 304 1 gusting 2 8.3
2019-Nov-18 16:55 267 8.3
2019-Nov-18 16:50 267 8.3
2019-Nov-18 16:45 267 8.3
2019-Nov-18 16:40 268 8.3
2019-Nov-18 16:35 286 1 gusting 2 8.3
2019-Nov-18 16:30 273 8.3
2019-Nov-18 16:25 277 0 gusting 3 8.3
2019-Nov-18 16:15 319 2 gusting 3 7.8
2019-Nov-18 16:10 285 1 gusting 4 7.8
2019-Nov-18 16:05 300 2 gusting 4 8.3
2019-Nov-18 16:00 304 2 gusting 3 8.3
2019-Nov-18 15:55 252 1 gusting 3 7.8
2019-Nov-18 15:50 262 1 gusting 3 7.8
2019-Nov-18 15:45 304 2 gusting 3 7.8
2019-Nov-18 15:40 285 1 gusting 2 7.8
2019-Nov-18 15:35 293 1 gusting 3 7.8
2019-Nov-18 15:30 272 0 gusting 3 7.8
2019-Nov-18 15:25 319 2 gusting 3 7.8
2019-Nov-18 15:20 273 0 gusting 1 7.8
2019-Nov-18 15:15 273 0 gusting 2 7.8
2019-Nov-18 15:10 291 1 gusting 2 7.8
2019-Nov-18 15:05 240 7.8
2019-Nov-18 15:00 240 7.8
2019-Nov-18 14:55 241 7.8
2019-Nov-18 14:50 241 7.8
2019-Nov-18 14:45 240 8.3
2019-Nov-18 14:40 240 8.3
2019-Nov-18 14:35 240 8.3
2019-Nov-18 14:30 239 8.3
2019-Nov-18 14:25 238 8.3
2019-Nov-18 14:20 269 7.8
2019-Nov-18 14:15 272 0 gusting 1 7.8
2019-Nov-18 14:10 277 1 gusting 1 8.3
2019-Nov-18 14:05 271 8.3
2019-Nov-18 14:00 273 0 gusting 1 8.3
2019-Nov-18 13:55 267 0 gusting 2 8.3
2019-Nov-18 13:45 245 0 gusting 1 8.3
2019-Nov-18 13:40 237 8.3
2019-Nov-18 13:35 223 8.3
2019-Nov-18 13:30 217 8.3
2019-Nov-18 13:25 217 8.3
2019-Nov-18 13:20 217 8.3
2019-Nov-18 13:15 216 8.3
2019-Nov-18 13:10 216 8.3
2019-Nov-18 13:05 216 8.3
2019-Nov-18 13:00 215 0 gusting 1 8.3
2019-Nov-18 12:55 250 0 gusting 0 8.3
2019-Nov-18 12:50 250 8.3
2019-Nov-18 12:45 268 8.3
2019-Nov-18 12:40 267 8.3
2019-Nov-18 12:35 268 8.3
2019-Nov-18 12:30 268 8.3
2019-Nov-18 12:25 268 8.3
2019-Nov-18 12:20 268 8.3
2019-Nov-18 12:15 268 8.3
2019-Nov-18 12:10 268 8.3
2019-Nov-18 12:05 268 8.3
2019-Nov-18 12:00 278 2 gusting 2 8.9
2019-Nov-18 11:55 278 8.9
2019-Nov-18 11:50 280 0 gusting 2 8.9
2019-Nov-18 11:45 283 0 gusting 2 8.9
2019-Nov-18 11:40 267 8.9
2019-Nov-18 11:35 254 9.4
2019-Nov-18 11:30 254 9.4
2019-Nov-18 11:25 254 9.4
2019-Nov-18 11:20 254 9.4
2019-Nov-18 11:15 254 9.4
2019-Nov-18 11:10 254 9.4
2019-Nov-18 11:05 254 9.4
2019-Nov-18 11:01 254 9.4
2019-Nov-18 10:55 254 9.4
2019-Nov-18 10:50 254 8.9
2019-Nov-18 10:45 271 8.9
2019-Nov-18 10:40 271 8.9
2019-Nov-18 10:35 271 8.9
2019-Nov-18 10:30 271 8.9
2019-Nov-18 10:25 271 8.9
2019-Nov-18 10:20 272 8.9
2019-Nov-18 10:15 272 8.9
2019-Nov-18 10:10 272 8.9
2019-Nov-18 10:05 272 8.9
2019-Nov-18 10:00 273 9.4
2019-Nov-18 09:55 276 9.4
2019-Nov-18 09:50 276 8.9
2019-Nov-18 09:45 280 1 gusting 4 9.4
2019-Nov-18 09:40 299 2 gusting 4 9.4
2019-Nov-18 09:35 300 1 gusting 4 9.4
2019-Nov-18 09:30 321 2 gusting 3 9.4
2019-Nov-18 09:25 273 1 gusting 2 9.4
2019-Nov-18 09:20 272 0 gusting 2 9.4
2019-Nov-18 09:15 300 1 gusting 2 9.4
2019-Nov-18 09:10 276 10.0
2019-Nov-18 09:05 277 0 gusting 1 10.0
2019-Nov-18 09:01 280 0 gusting 2 10.0
2019-Nov-18 08:55 281 1 gusting 2 10.0
2019-Nov-18 08:50 226 10.0
2019-Nov-18 08:45 226 10.0
2019-Nov-18 08:40 226 10.0
2019-Nov-18 08:35 226 10.0
2019-Nov-18 08:30 226 0 gusting 0 10.0
2019-Nov-18 08:25 227 10.0
2019-Nov-18 08:15 227 10.0
2019-Nov-18 08:10 226 10.0
2019-Nov-18 08:05 226 10.0
2019-Nov-18 08:00 226 10.0
2019-Nov-18 07:55 226 10.0
2019-Nov-18 07:50 226 10.0
2019-Nov-18 07:45 227 10.0
2019-Nov-18 07:40 227 10.0
2019-Nov-18 07:35 227 10.0
2019-Nov-18 07:30 227 10.0
2019-Nov-18 07:25 226 10.0
2019-Nov-18 07:20 227 10.0
2019-Nov-18 07:15 226 10.0
2019-Nov-18 07:10 226 10.0
2019-Nov-18 07:05 227 10.0
2019-Nov-18 07:00 227 10.0
2019-Nov-18 06:55 227 0 gusting 1 10.0
2019-Nov-18 06:50 227 0 gusting 1 10.0
2019-Nov-18 06:45 227 0 gusting 1 10.0
2019-Nov-18 06:35 226 0 gusting 0 10.0
2019-Nov-18 06:30 226 10.0
2019-Nov-18 06:20 226 0 gusting 1 10.0
2019-Nov-18 06:15 227 10.0
2019-Nov-18 06:05 226 0 gusting 1 10.0
2019-Nov-18 06:01 226 0 gusting 1 10.0
2019-Nov-18 05:55 248 0 gusting 1 10.0
2019-Nov-18 05:50 249 1 gusting 1 10.0
2019-Nov-18 05:45 249 0 gusting 0 10.0
2019-Nov-18 05:40 249 0 gusting 0 10.0
2019-Nov-18 05:35 248 0 gusting 0 10.6
2019-Nov-18 05:30 249 10.6
2019-Nov-18 05:25 249 10.6
2019-Nov-18 05:20 249 10.6
2019-Nov-18 05:15 249 10.6
2019-Nov-18 05:05 249 0 gusting 1 10.6
2019-Nov-18 05:00 250 0 gusting 1 10.6
2019-Nov-18 04:55 250 0 gusting 0 10.6
2019-Nov-18 04:50 250 0 gusting 0 10.6
2019-Nov-18 04:45 250 10.6
2019-Nov-18 04:40 250 10.6
2019-Nov-18 04:35 250 10.6
2019-Nov-18 04:30 250 10.6
2019-Nov-18 04:25 250 0 gusting 0 10.6
2019-Nov-18 04:20 250 10.6
2019-Nov-18 04:15 250 0 gusting 0 10.6
2019-Nov-18 04:10 250 10.6
2019-Nov-18 04:05 251 10.6
2019-Nov-18 04:00 251 10.6
2019-Nov-18 03:55 252 0 gusting 2 10.6
2019-Nov-18 03:50 250 11.1
2019-Nov-18 03:45 259 0 gusting 2 10.6
2019-Nov-18 03:40 246 10.6
2019-Nov-18 03:35 240 0 gusting 1 10.6
2019-Nov-18 03:30 232 10.6
2019-Nov-18 03:25 232 10.6
2019-Nov-18 03:20 231 11.1
2019-Nov-18 03:15 231 0 gusting 1 10.6
2019-Nov-18 03:10 231 0 gusting 1 11.1
2019-Nov-18 03:05 231 0 gusting 1 11.1
2019-Nov-18 03:01 231 0 gusting 3 11.1
2019-Nov-18 02:55 230 0 gusting 3 11.1
2019-Nov-18 02:50 241 1 gusting 3 11.1
2019-Nov-18 02:45 256 0 gusting 3 11.1
2019-Nov-18 02:40 257 1 gusting 3 11.1
2019-Nov-18 02:35 250 1 gusting 3 11.1
2019-Nov-18 02:30 245 0 gusting 1 11.1
2019-Nov-18 02:25 243 1 gusting 2 11.1
2019-Nov-18 02:15 250 0 gusting 3 11.1
2019-Nov-18 02:10 254 1 gusting 3 11.1
2019-Nov-18 02:00 249 0 gusting 2 11.1
2019-Nov-18 01:55 260 0 gusting 2 10.6
2019-Nov-18 01:50 259 10.6
2019-Nov-18 01:45 259 0 gusting 1 11.1
2019-Nov-18 01:40 246 0 gusting 2 11.1
2019-Nov-18 01:35 245 1 gusting 2 10.6
2019-Nov-18 01:25 235 0 gusting 2 10.6
2019-Nov-18 01:15 235 0 gusting 1 10.6
2019-Nov-18 01:10 235 1 gusting 1 10.6
2019-Nov-18 01:00 235 0 gusting 0 10.6
2019-Nov-18 00:55 235 0 gusting 0 10.6
2019-Nov-18 00:45 234 10.6
2019-Nov-18 00:35 244 0 gusting 1 10.6
2019-Nov-18 00:30 244 10.6
2019-Nov-18 00:20 244 0 gusting 2 11.1
2019-Nov-18 00:15 240 1 gusting 1 11.1
2019-Nov-18 00:05 235 0 gusting 1 11.1
2019-Nov-18 00:00 242 11.7
2019-Nov-17 23:55 252 11.7
2019-Nov-17 23:45 252 11.7
2019-Nov-17 23:40 261 11.7
2019-Nov-17 23:35 261 11.7
2019-Nov-17 23:30 261 11.7
2019-Nov-17 23:25 262 11.7
2019-Nov-17 23:15 262 11.7
2019-Nov-17 23:10 262 0 gusting 2 11.7
2019-Nov-17 23:05 235 1 gusting 4 11.7
2019-Nov-17 23:00 265 1 gusting 4 11.7
2019-Nov-17 22:55 297 1 gusting 6 11.7
2019-Nov-17 22:50 273 2 gusting 6 12.2
2019-Nov-17 22:40 269 3 gusting 6 12.2
2019-Nov-17 22:35 344 2 gusting 2 12.2
2019-Nov-17 22:25 193 0 gusting 4 12.2
2019-Nov-17 22:20 166 2 gusting 4 12.2
2019-Nov-17 22:15 175 3 gusting 5 12.2
2019-Nov-17 22:10 171 3 gusting 5 12.2
2019-Nov-17 22:05 158 4 gusting 6 12.8
2019-Nov-17 22:00 149 5 gusting 6 12.8
2019-Nov-17 21:55 133 3 gusting 5 12.8
2019-Nov-17 21:50 158 1 gusting 4 12.8
2019-Nov-17 21:45 183 0 gusting 5 12.8
2019-Nov-17 21:40 128 3 gusting 6 12.8
2019-Nov-17 21:35 190 2 gusting 6 12.8
2019-Nov-17 21:30 136 3 gusting 6 12.8
2019-Nov-17 21:25 185 3 gusting 7 12.8
2019-Nov-17 21:20 162 6 gusting 9 12.8
2019-Nov-17 21:15 185 6 gusting 9 12.8
2019-Nov-17 21:10 150 6 gusting 8 12.8
2019-Nov-17 21:05 127 6 gusting 8 12.8
2019-Nov-17 21:01 130 4 gusting 7 12.8
2019-Nov-17 20:55 129 6 gusting 7 12.8
2019-Nov-17 20:50 172 5 gusting 6 12.8
2019-Nov-17 20:45 133 6 gusting 8 12.8
2019-Nov-17 20:40 159 6 gusting 8 12.8
2019-Nov-17 20:35 166 6 gusting 7 12.8
2019-Nov-17 20:30 129 5 gusting 9 12.8
2019-Nov-17 20:25 133 6 gusting 9 12.8
2019-Nov-17 20:20 132 6 gusting 10 12.8
2019-Nov-17 20:15 125 6 gusting 10 12.8
2019-Nov-17 20:10 180 6 gusting 9 12.8
2019-Nov-17 20:05 123 6 gusting 8 12.8
2019-Nov-17 20:00 179 6 gusting 9 12.8
2019-Nov-17 19:55 127 6 gusting 11 12.8
2019-Nov-17 19:50 129 7 gusting 11 12.8
2019-Nov-17 19:45 128 6 gusting 11 12.8
2019-Nov-17 19:40 137 5 gusting 11 12.2
2019-Nov-17 19:35 155 6 gusting 10 12.2
2019-Nov-17 19:30 137 7 gusting 13 12.2
2019-Nov-17 19:25 131 8 gusting 13 12.2
2019-Nov-17 19:15 169 6 gusting 10 12.2
2019-Nov-17 19:10 132 8 gusting 10 12.2
2019-Nov-17 19:00 127 7 gusting 12 12.2
2019-Nov-17 18:55 131 8 gusting 12 12.2
2019-Nov-17 18:50 176 8 gusting 12 11.7
2019-Nov-17 18:45 164 5 gusting 13 11.7
2019-Nov-17 18:40 145 7 gusting 13 11.7
2019-Nov-17 18:35 166 9 gusting 13 11.7
2019-Nov-17 18:30 145 8 gusting 13 11.7
2019-Nov-17 18:25 145 10 gusting 14 11.7
2019-Nov-17 18:20 120 9 gusting 14 11.7
2019-Nov-17 18:15 121 9 gusting 14 11.7
2019-Nov-17 18:10 122 9 gusting 15 11.7
2019-Nov-17 18:05 127 8 gusting 19 11.7
2019-Nov-17 18:01 139 13 gusting 19 11.7
2019-Nov-17 17:55 124 10 gusting 18 11.7
2019-Nov-17 17:50 133 10 gusting 18 11.7
2019-Nov-17 17:45 131 11 gusting 15 11.7
2019-Nov-17 17:40 124 11 gusting 15 11.7
2019-Nov-17 17:35 165 12 gusting 15 11.7
2019-Nov-17 17:30 127 10 gusting 16 11.7
2019-Nov-17 17:25 145 10 gusting 16 11.7
2019-Nov-17 17:20 135 9 gusting 14 11.7
2019-Nov-17 17:15 147 10 gusting 14 11.7
2019-Nov-17 17:10 126 6 gusting 14 11.7
2019-Nov-17 17:05 167 9 gusting 16 11.7
2019-Nov-17 17:00 159 6 gusting 16 11.7
2019-Nov-17 16:55 126 13 gusting 16 11.7
2019-Nov-17 16:50 131 11 gusting 15 11.7
2019-Nov-17 16:45 145 10 gusting 14 11.7
2019-Nov-17 16:40 141 9 gusting 13 11.1
2019-Nov-17 16:35 142 6 gusting 18 11.7
2019-Nov-17 16:30 136 8 gusting 18 11.7
2019-Nov-17 16:25 133 10 gusting 21 11.7
2019-Nov-17 16:20 168 9 gusting 21 11.1
2019-Nov-17 16:15 143 13 gusting 19 11.7
2019-Nov-17 16:10 122 11 gusting 17 11.7
2019-Nov-17 16:00 153 9 gusting 13 11.7
2019-Nov-17 15:55 181 6 gusting 13 11.7
2019-Nov-17 15:50 147 6 gusting 19 11.7
2019-Nov-17 15:45 134 12 gusting 19 11.7
2019-Nov-17 15:40 119 8 gusting 16 11.7
2019-Nov-17 15:35 122 9 gusting 17 11.7
2019-Nov-17 15:30 138 6 gusting 18 11.7
2019-Nov-17 15:25 167 9 gusting 18 11.7
2019-Nov-17 15:20 188 10 gusting 19 11.7
2019-Nov-17 15:10 148 13 gusting 18 11.7
2019-Nov-17 15:05 138 10 gusting 19 11.7